createdAt,value
2022-09-18T00:00:58.062Z,85.25
2022-09-18T00:01:58.124Z,85.15
2022-09-18T00:02:58.082Z,86.28
2022-09-18T00:03:58.067Z,86.38
2022-09-18T00:04:58.045Z,86.18
2022-09-18T00:05:58.042Z,86.69
2022-09-18T00:06:58.024Z,86.79
2022-09-18T00:07:58.018Z,86.90
2022-09-18T00:08:58.010Z,86.79
2022-09-18T00:09:58.016Z,87.20
2022-09-18T00:10:57.993Z,86.93
2022-09-18T00:11:58.078Z,87.10
2022-09-18T00:12:57.984Z,86.69
2022-09-18T00:13:57.993Z,87.10
2022-09-18T00:14:57.991Z,86.99
2022-09-18T00:15:58.003Z,86.38
2022-09-18T00:16:57.955Z,87.30
2022-09-18T00:17:57.974Z,86.99
2022-09-18T00:18:57.968Z,86.90
2022-09-18T00:19:57.952Z,86.90
2022-09-18T00:20:57.936Z,86.90
2022-09-18T00:21:57.917Z,86.79
2022-09-18T00:22:57.909Z,87.30
2022-09-18T00:23:57.917Z,86.99
2022-09-18T00:24:57.894Z,86.90
2022-09-18T00:25:57.898Z,86.93
2022-09-18T00:26:57.883Z,86.73
2022-09-18T00:27:57.954Z,86.07
2022-09-18T00:28:57.889Z,86.63
2022-09-18T00:29:57.860Z,86.48
2022-09-18T00:30:57.870Z,86.58
2022-09-18T00:31:57.861Z,87.10
2022-09-18T00:32:57.847Z,86.83
2022-09-18T00:33:57.834Z,87.14
2022-09-18T00:34:57.841Z,87.34
2022-09-18T00:35:57.822Z,86.83
2022-09-18T00:36:57.817Z,87.34
2022-09-18T00:37:57.802Z,86.63
2022-09-18T00:38:57.816Z,87.14
2022-09-18T00:39:57.892Z,87.10
2022-09-18T00:40:57.790Z,86.83
2022-09-18T00:41:57.775Z,86.73
2022-09-18T00:42:57.767Z,87.14
2022-09-18T00:43:57.848Z,87.04
2022-09-18T00:44:57.770Z,87.04
2022-09-18T00:45:57.749Z,86.73
2022-09-18T00:46:57.805Z,86.58
2022-09-18T00:47:57.745Z,86.83
2022-09-18T00:48:57.803Z,86.79
2022-09-18T00:49:57.748Z,86.73
2022-09-18T00:50:57.716Z,85.36
2022-09-18T00:51:57.719Z,86.58
2022-09-18T00:52:57.700Z,86.69
2022-09-18T00:53:57.696Z,86.90
2022-09-18T00:54:57.686Z,86.79
2022-09-18T00:55:57.697Z,87.14
2022-09-18T00:56:57.684Z,86.58
2022-09-18T00:57:57.686Z,87.24
2022-09-18T00:58:57.660Z,86.99
2022-09-18T00:59:57.745Z,86.28
2022-09-18T01:00:57.765Z,86.18
2022-09-18T01:01:57.725Z,86.58
2022-09-18T01:02:57.639Z,86.83
2022-09-18T01:03:57.630Z,86.48
2022-09-18T01:04:57.617Z,86.18
2022-09-18T01:05:57.615Z,86.48
2022-09-18T01:06:57.666Z,86.48
2022-09-18T01:07:57.615Z,87.10
2022-09-18T01:08:57.594Z,86.69
2022-09-18T01:09:57.606Z,86.69
2022-09-18T01:10:57.585Z,86.58
2022-09-18T01:11:57.590Z,87.20
2022-09-18T01:12:57.606Z,86.58
2022-09-18T01:13:57.570Z,87.10
2022-09-18T01:14:57.575Z,87.20
2022-09-18T01:15:57.701Z,86.79
2022-09-18T01:16:57.539Z,87.30
2022-09-18T01:17:57.536Z,86.99
2022-09-18T01:18:57.531Z,86.69
2022-09-18T01:19:57.531Z,86.79
2022-09-18T01:20:57.534Z,86.90
2022-09-18T01:21:57.529Z,86.90
2022-09-18T01:22:57.502Z,87.10
2022-09-18T01:23:57.497Z,86.79
2022-09-18T01:24:57.483Z,86.90
2022-09-18T01:25:57.507Z,87.10
2022-09-18T01:26:57.475Z,86.99
2022-09-18T01:27:57.469Z,87.24
2022-09-18T01:28:57.469Z,86.99
2022-09-18T01:29:57.466Z,87.20
2022-09-18T01:30:57.479Z,86.79
2022-09-18T01:31:57.525Z,87.10
2022-09-18T01:32:57.454Z,86.99
2022-09-18T01:33:57.434Z,86.79
2022-09-18T01:34:57.450Z,87.10
2022-09-18T01:35:57.415Z,86.99
2022-09-18T01:36:57.413Z,87.20
2022-09-18T01:37:57.406Z,87.30
2022-09-18T01:38:57.412Z,86.99
2022-09-18T01:39:57.454Z,86.99
2022-09-18T01:40:57.393Z,86.99
2022-09-18T01:41:57.381Z,87.10
2022-09-18T01:42:57.370Z,86.69
2022-09-18T01:43:57.383Z,86.69
2022-09-18T01:44:57.359Z,86.69
2022-09-18T01:45:57.364Z,87.10
2022-09-18T01:46:57.393Z,87.10
2022-09-18T01:47:57.422Z,86.90
2022-09-18T01:48:57.362Z,87.20
2022-09-18T01:49:57.321Z,87.10
2022-09-18T01:50:57.319Z,87.10
2022-09-18T01:51:57.310Z,86.93
2022-09-18T01:52:57.300Z,87.20
2022-09-18T01:53:57.309Z,86.99
2022-09-18T01:54:57.318Z,87.04
2022-09-18T01:55:57.283Z,86.79
2022-09-18T01:56:57.276Z,87.10
2022-09-18T01:57:57.275Z,86.69
2022-09-18T01:58:57.275Z,87.10
2022-09-18T01:59:57.282Z,87.20
2022-09-18T02:00:57.248Z,87.30
2022-09-18T02:01:57.308Z,87.20
2022-09-18T02:02:57.320Z,86.90
2022-09-18T02:03:57.327Z,86.58
2022-09-18T02:04:57.245Z,87.10
2022-09-18T02:05:57.223Z,86.90
2022-09-18T02:06:57.213Z,87.20
2022-09-18T02:07:57.200Z,86.69
2022-09-18T02:08:57.216Z,86.99
2022-09-18T02:09:57.214Z,86.90
2022-09-18T02:10:57.174Z,86.69
2022-09-18T02:11:57.177Z,86.99
2022-09-18T02:12:57.168Z,86.79
2022-09-18T02:13:57.181Z,86.90
2022-09-18T02:14:57.175Z,86.79
2022-09-18T02:15:57.232Z,86.79
2022-09-18T02:16:57.131Z,86.90
2022-09-18T02:17:57.136Z,86.90
2022-09-18T02:18:57.141Z,86.99
2022-09-18T02:19:57.195Z,87.10
2022-09-18T02:20:57.129Z,87.16
2022-09-18T02:21:57.107Z,86.65
2022-09-18T02:22:57.117Z,87.26
2022-09-18T02:23:57.090Z,87.10
2022-09-18T02:24:57.072Z,87.06
2022-09-18T02:25:57.072Z,86.90
2022-09-18T02:26:57.142Z,86.90
2022-09-18T02:27:57.056Z,86.69
2022-09-18T02:28:57.049Z,88.43
2022-09-18T02:29:57.047Z,88.33
2022-09-18T02:30:57.076Z,88.33
2022-09-18T02:31:57.035Z,88.23
2022-09-18T02:32:57.043Z,88.33
2022-09-18T02:33:57.004Z,88.43
2022-09-18T02:34:57.010Z,88.12
2022-09-18T02:35:57.084Z,88.74
2022-09-18T02:36:56.993Z,88.23
2022-09-18T02:37:56.992Z,88.64
2022-09-18T02:38:56.973Z,88.12
2022-09-18T02:39:57.018Z,88.23
2022-09-18T02:40:56.956Z,88.12
2022-09-18T02:41:56.957Z,88.12
2022-09-18T02:42:56.955Z,87.92
2022-09-18T02:43:56.929Z,88.33
2022-09-18T02:44:56.946Z,88.23
2022-09-18T02:45:56.929Z,88.12
2022-09-18T02:46:56.941Z,88.12
2022-09-18T02:47:56.927Z,88.17
2022-09-18T02:48:56.897Z,88.47
2022-09-18T02:49:56.888Z,88.74
2022-09-18T02:50:56.911Z,88.47
2022-09-18T02:51:56.959Z,88.12
2022-09-18T02:52:56.870Z,88.33
2022-09-18T02:53:56.876Z,87.92
2022-09-18T02:54:56.860Z,88.57
2022-09-18T02:55:56.847Z,88.02
2022-09-18T02:56:56.857Z,88.47
2022-09-18T02:57:56.835Z,88.74
2022-09-18T02:58:56.833Z,88.64
2022-09-18T02:59:56.823Z,87.96
2022-09-18T03:00:56.802Z,88.43
2022-09-18T03:01:56.889Z,87.30
2022-09-18T03:02:56.879Z,87.30
2022-09-18T03:03:56.791Z,88.12
2022-09-18T03:04:56.775Z,87.92
2022-09-18T03:05:56.778Z,88.02
2022-09-18T03:06:56.763Z,88.33
2022-09-18T03:07:56.831Z,87.92
2022-09-18T03:08:56.779Z,88.17
2022-09-18T03:09:56.742Z,87.92
2022-09-18T03:10:56.738Z,88.23
2022-09-18T03:11:56.727Z,88.12
2022-09-18T03:12:56.722Z,88.33
2022-09-18T03:13:56.717Z,88.47
2022-09-18T03:14:56.722Z,88.53
2022-09-18T03:15:56.736Z,88.27
2022-09-18T03:16:56.681Z,88.06
2022-09-18T03:17:56.696Z,88.27
2022-09-18T03:18:56.674Z,88.57
2022-09-18T03:19:56.673Z,88.37
2022-09-18T03:20:56.651Z,88.57
2022-09-18T03:21:56.647Z,88.17
2022-09-18T03:22:56.661Z,87.96
2022-09-18T03:23:56.739Z,88.12
2022-09-18T03:24:56.637Z,87.41
2022-09-18T03:25:56.635Z,88.43
2022-09-18T03:26:56.610Z,87.20
2022-09-18T03:27:56.607Z,86.90
2022-09-18T03:28:56.601Z,87.65
2022-09-18T03:29:56.599Z,88.47
2022-09-18T03:30:56.610Z,86.93
2022-09-18T03:31:56.627Z,87.24
2022-09-18T03:32:56.570Z,86.83
2022-09-18T03:33:56.573Z,87.04
2022-09-18T03:34:56.571Z,87.14
2022-09-18T03:35:56.574Z,86.73
2022-09-18T03:36:56.548Z,86.63
2022-09-18T03:37:56.549Z,87.24
2022-09-18T03:38:56.529Z,87.14
2022-09-18T03:39:56.643Z,86.87
2022-09-18T03:40:56.507Z,87.04
2022-09-18T03:41:56.520Z,87.18
2022-09-18T03:42:56.522Z,87.08
2022-09-18T03:43:56.488Z,86.87
2022-09-18T03:44:56.490Z,87.49
2022-09-18T03:45:56.471Z,88.51
2022-09-18T03:46:56.520Z,87.49
2022-09-18T03:47:56.461Z,87.28
2022-09-18T03:48:56.485Z,87.08
2022-09-18T03:49:56.469Z,87.28
2022-09-18T03:50:56.452Z,87.14
2022-09-18T03:51:56.442Z,87.18
2022-09-18T03:52:56.429Z,87.08
2022-09-18T03:53:56.421Z,86.98
2022-09-18T03:54:56.442Z,87.18
2022-09-18T03:55:56.501Z,87.18
2022-09-18T03:56:56.400Z,86.66
2022-09-18T03:57:56.387Z,87.12
2022-09-18T03:58:56.391Z,87.08
2022-09-18T03:59:56.374Z,86.77
2022-09-18T04:00:56.364Z,87.12
2022-09-18T04:01:56.381Z,87.32
2022-09-18T04:02:56.384Z,86.77
2022-09-18T04:03:56.371Z,86.77
2022-09-18T04:04:56.356Z,86.98
2022-09-18T04:05:56.331Z,87.18
2022-09-18T04:06:56.320Z,87.18
2022-09-18T04:08:03.317Z,86.98
2022-09-18T04:08:56.302Z,87.49
2022-09-18T04:09:56.301Z,86.71
2022-09-18T04:10:56.312Z,86.77
2022-09-18T04:11:56.372Z,87.18
2022-09-18T04:12:56.276Z,86.87
2022-09-18T04:13:56.259Z,86.66
2022-09-18T04:14:56.257Z,86.77
2022-09-18T04:15:56.275Z,87.18
2022-09-18T04:16:56.265Z,86.50
2022-09-18T04:17:56.234Z,86.87
2022-09-18T04:18:56.389Z,87.38
2022-09-18T04:19:56.232Z,87.22
2022-09-18T04:20:56.220Z,86.50
2022-09-18T04:21:56.209Z,87.02
2022-09-18T04:22:56.200Z,87.22
2022-09-18T04:23:56.209Z,87.28
2022-09-18T04:24:56.184Z,87.32
2022-09-18T04:25:56.179Z,87.08
2022-09-18T04:26:56.170Z,87.02
2022-09-18T04:27:56.233Z,87.02
2022-09-18T04:28:56.172Z,86.81
2022-09-18T04:29:56.150Z,86.81
2022-09-18T04:30:56.188Z,86.98
2022-09-18T04:31:56.127Z,86.81
2022-09-18T04:32:56.121Z,88.45
2022-09-18T04:33:56.135Z,87.63
2022-09-18T04:34:56.113Z,88.56
2022-09-18T04:35:56.119Z,88.24
2022-09-18T04:36:56.110Z,88.24
2022-09-18T04:37:56.084Z,88.24
2022-09-18T04:38:56.097Z,88.14
2022-09-18T04:39:56.134Z,88.24
2022-09-18T04:40:56.065Z,88.21
2022-09-18T04:41:56.054Z,88.51
2022-09-18T04:42:56.041Z,88.41
2022-09-18T04:43:56.121Z,86.87
2022-09-18T04:44:56.046Z,87.18
2022-09-18T04:45:56.035Z,86.73
2022-09-18T04:46:56.067Z,86.66
2022-09-18T04:47:56.000Z,88.62
2022-09-18T04:48:55.999Z,88.51
2022-09-18T04:49:56.013Z,88.21
2022-09-18T04:50:55.980Z,88.41
2022-09-18T04:51:55.997Z,88.21
2022-09-18T04:52:55.990Z,88.00
2022-09-18T04:53:55.965Z,88.31
2022-09-18T04:54:55.951Z,88.00
2022-09-18T04:55:55.940Z,88.10
2022-09-18T04:56:55.935Z,88.31
2022-09-18T04:57:55.926Z,88.21
2022-09-18T04:58:55.946Z,88.10
2022-09-18T04:59:55.993Z,88.21
2022-09-18T05:00:55.932Z,88.21
2022-09-18T05:01:55.944Z,88.21
2022-09-18T05:02:55.901Z,88.31
2022-09-18T05:03:55.882Z,88.21
2022-09-18T05:04:55.894Z,88.51
2022-09-18T05:05:55.881Z,88.51
2022-09-18T05:06:55.862Z,87.96
2022-09-18T05:07:55.858Z,88.21
2022-09-18T05:08:55.852Z,88.27
2022-09-18T05:09:55.843Z,87.65
2022-09-18T05:10:55.848Z,87.49
2022-09-18T05:11:55.821Z,87.14
2022-09-18T05:12:55.820Z,86.38
2022-09-18T05:13:55.861Z,87.55
2022-09-18T05:14:55.807Z,88.37
2022-09-18T05:15:55.973Z,87.34
2022-09-18T05:16:55.833Z,86.69
2022-09-18T05:17:55.787Z,87.10
2022-09-18T05:18:55.775Z,87.10
2022-09-18T05:19:55.769Z,86.90
2022-09-18T05:20:55.755Z,86.73
2022-09-18T05:21:55.755Z,86.83
2022-09-18T05:22:55.781Z,87.20
2022-09-18T05:23:55.739Z,86.69
2022-09-18T05:24:55.737Z,87.10
2022-09-18T05:25:55.723Z,86.69
2022-09-18T05:26:55.706Z,87.41
2022-09-18T05:27:55.710Z,86.48
2022-09-18T05:28:55.719Z,86.79
2022-09-18T05:29:55.699Z,86.79
2022-09-18T05:30:55.717Z,87.20
2022-09-18T05:31:55.825Z,86.69
2022-09-18T05:32:58.884Z,87.71
2022-09-18T05:33:55.689Z,87.61
2022-09-18T05:34:55.660Z,87.41
2022-09-18T05:35:55.657Z,87.41
2022-09-18T05:36:55.648Z,87.10
2022-09-18T05:37:55.647Z,88.53
2022-09-18T05:38:55.627Z,88.43
2022-09-18T05:39:55.736Z,87.47
2022-09-18T05:40:55.613Z,87.20
2022-09-18T05:41:55.607Z,86.75
2022-09-18T05:42:55.607Z,86.90
2022-09-18T05:43:55.602Z,87.20
2022-09-18T05:44:59.824Z,87.61
2022-09-18T05:45:56.579Z,88.53
2022-09-18T05:46:55.642Z,88.23
2022-09-18T05:47:55.644Z,88.53
2022-09-18T05:48:55.566Z,88.23
2022-09-18T05:49:55.569Z,88.12
2022-09-18T05:50:55.545Z,87.82
2022-09-18T05:51:55.535Z,88.43
2022-09-18T05:52:55.533Z,88.33
2022-09-18T05:53:55.540Z,88.12
2022-09-18T05:54:55.514Z,88.43
2022-09-18T05:55:55.511Z,88.02
2022-09-18T05:56:55.514Z,88.12
2022-09-18T05:57:55.501Z,88.43
2022-09-18T05:58:55.485Z,88.23
2022-09-18T05:59:55.504Z,88.80
2022-09-18T06:00:55.485Z,88.12
2022-09-18T06:01:55.546Z,88.74
2022-09-18T06:02:55.548Z,88.74
2022-09-18T06:03:55.545Z,88.64
2022-09-18T06:04:55.450Z,88.94
2022-09-18T06:05:55.473Z,89.25
2022-09-18T06:06:55.462Z,89.15
2022-09-18T06:07:59.562Z,89.25
2022-09-18T06:08:55.429Z,88.94
2022-09-18T06:09:55.415Z,88.84
2022-09-18T06:10:55.415Z,88.29
2022-09-18T06:11:55.425Z,88.70
2022-09-18T06:12:55.402Z,88.39
2022-09-18T06:13:55.389Z,88.80
2022-09-18T06:14:55.398Z,88.90
2022-09-18T06:15:55.427Z,88.80
2022-09-18T06:16:55.369Z,88.59
2022-09-18T06:17:55.362Z,88.70
2022-09-18T06:18:55.357Z,89.42
2022-09-18T06:19:55.441Z,89.42
2022-09-18T06:20:55.336Z,88.90
2022-09-18T06:21:55.329Z,89.25
2022-09-18T06:22:55.323Z,89.00
2022-09-18T06:23:55.342Z,89.97
2022-09-18T06:24:55.311Z,89.62
2022-09-18T06:25:55.307Z,89.92
2022-09-18T06:26:55.322Z,89.31
2022-09-18T06:27:55.303Z,89.00
2022-09-18T06:28:55.285Z,89.31
2022-09-18T06:29:55.294Z,89.83
2022-09-18T06:30:55.274Z,89.62
2022-09-18T06:31:55.301Z,89.11
2022-09-18T06:32:55.269Z,88.70
2022-09-18T06:33:55.249Z,89.21
2022-09-18T06:34:55.310Z,89.72
2022-09-18T06:35:55.314Z,90.03
2022-09-18T06:36:55.245Z,90.03
2022-09-18T06:37:55.227Z,89.92
2022-09-18T06:38:55.223Z,89.31
2022-09-18T06:39:55.249Z,89.42
2022-09-18T06:40:55.218Z,89.51
2022-09-18T06:41:55.191Z,89.47
2022-09-18T06:42:55.178Z,89.06
2022-09-18T06:43:55.191Z,88.56
2022-09-18T06:44:55.172Z,88.65
2022-09-18T06:45:55.188Z,89.17
2022-09-18T06:46:55.248Z,89.06
2022-09-18T06:47:55.167Z,89.06
2022-09-18T06:48:55.144Z,88.86
2022-09-18T06:49:55.127Z,89.37
2022-09-18T06:50:55.144Z,89.27
2022-09-18T06:51:55.196Z,90.19
2022-09-18T06:52:55.112Z,89.27
2022-09-18T06:53:55.103Z,89.17
2022-09-18T06:54:55.094Z,88.86
2022-09-18T06:55:55.101Z,88.65
2022-09-18T06:56:55.104Z,88.31
2022-09-18T06:57:55.083Z,88.35
2022-09-18T06:58:55.071Z,88.24
2022-09-18T06:59:55.057Z,88.00
2022-09-18T07:00:55.114Z,88.56
2022-09-18T07:01:55.090Z,88.41
2022-09-18T07:02:55.054Z,88.45
2022-09-18T07:03:55.036Z,88.41
2022-09-18T07:04:55.038Z,88.00
2022-09-18T07:05:55.012Z,87.90
2022-09-18T07:06:55.052Z,88.00
2022-09-18T07:07:55.087Z,87.90
2022-09-18T07:08:55.033Z,88.41
2022-09-18T07:09:54.998Z,88.20
2022-09-18T07:10:54.984Z,88.71
2022-09-18T07:11:54.983Z,88.62
2022-09-18T07:12:54.970Z,88.31
2022-09-18T07:13:54.972Z,88.51
2022-09-18T07:14:54.984Z,88.31
2022-09-18T07:15:54.979Z,87.65
2022-09-18T07:16:54.938Z,87.79
2022-09-18T07:17:54.949Z,88.41
2022-09-18T07:18:54.933Z,88.10
2022-09-18T07:19:54.929Z,88.20
2022-09-18T07:20:54.929Z,88.71
2022-09-18T07:21:54.918Z,88.51
2022-09-18T07:22:54.914Z,88.20
2022-09-18T07:23:54.981Z,88.71
2022-09-18T07:24:54.913Z,88.62
2022-09-18T07:25:54.897Z,89.03
2022-09-18T07:26:54.899Z,89.12
2022-09-18T07:27:54.880Z,88.92
2022-09-18T07:28:54.871Z,88.82
2022-09-18T07:29:54.872Z,89.03
2022-09-18T07:30:54.916Z,88.92
2022-09-18T07:31:54.870Z,88.71
2022-09-18T07:32:54.839Z,88.68
2022-09-18T07:33:54.837Z,88.68
2022-09-18T07:34:54.891Z,88.71
2022-09-18T07:35:54.826Z,88.51
2022-09-18T07:36:54.822Z,88.57
2022-09-18T07:37:54.817Z,89.18
2022-09-18T07:38:54.799Z,88.78
2022-09-18T07:39:54.998Z,88.68
2022-09-18T07:40:54.812Z,88.17
2022-09-18T07:41:54.791Z,88.06
2022-09-18T07:42:54.770Z,88.57
2022-09-18T07:43:54.772Z,88.84
2022-09-18T07:44:54.755Z,88.12
2022-09-18T07:45:54.769Z,88.06
2022-09-18T07:46:54.833Z,87.82
2022-09-18T07:47:54.767Z,87.92
2022-09-18T07:48:54.736Z,88.53
2022-09-18T07:49:54.737Z,88.43
2022-09-18T07:50:54.720Z,88.23
2022-09-18T07:51:54.715Z,87.71
2022-09-18T07:52:54.732Z,88.18
2022-09-18T07:53:54.707Z,88.08
2022-09-18T07:54:54.694Z,88.18
2022-09-18T07:55:54.772Z,87.82
2022-09-18T07:56:54.674Z,87.98
2022-09-18T07:57:54.678Z,87.98
2022-09-18T07:58:54.690Z,88.29
2022-09-18T07:59:54.662Z,88.18
2022-09-18T08:00:54.654Z,88.18
2022-09-18T08:01:54.800Z,88.08
2022-09-18T08:02:54.757Z,87.73
2022-09-18T08:03:54.634Z,87.88
2022-09-18T08:04:54.643Z,88.14
2022-09-18T08:05:54.612Z,87.98
2022-09-18T08:06:54.612Z,88.45
2022-09-18T08:07:54.598Z,87.73
2022-09-18T08:08:55.271Z,87.84
2022-09-18T08:09:54.587Z,88.14
2022-09-18T08:10:54.598Z,87.94
2022-09-18T08:11:54.678Z,88.14
2022-09-18T08:12:54.573Z,88.04
2022-09-18T08:13:54.559Z,87.94
2022-09-18T08:14:54.551Z,87.23
2022-09-18T08:15:54.592Z,88.14
2022-09-18T08:16:54.543Z,88.14
2022-09-18T08:17:54.548Z,86.82
2022-09-18T08:18:54.543Z,86.67
2022-09-18T08:19:54.518Z,86.51
2022-09-18T08:20:54.530Z,86.71
2022-09-18T08:21:54.537Z,86.71
2022-09-18T08:22:54.500Z,87.08
2022-09-18T08:23:54.495Z,86.91
2022-09-18T08:24:54.486Z,86.71
2022-09-18T08:25:54.477Z,86.47
2022-09-18T08:26:54.467Z,86.36
2022-09-18T08:27:54.557Z,85.96
2022-09-18T08:28:54.451Z,84.83
2022-09-18T08:29:54.447Z,85.45
2022-09-18T08:30:54.483Z,84.83
2022-09-18T08:31:54.495Z,85.21
2022-09-18T08:32:54.437Z,85.10
2022-09-18T08:33:54.434Z,85.10
2022-09-18T08:34:54.418Z,85.00
2022-09-18T08:35:54.412Z,84.90
2022-09-18T08:36:54.394Z,85.00
2022-09-18T08:37:54.391Z,85.41
2022-09-18T08:38:54.384Z,84.80
2022-09-18T08:39:54.432Z,84.90
2022-09-18T08:40:54.374Z,85.98
2022-09-18T08:41:54.354Z,85.41
2022-09-18T08:42:54.357Z,84.80
2022-09-18T08:43:54.429Z,85.00
2022-09-18T08:44:54.356Z,85.00
2022-09-18T08:45:54.330Z,85.30
2022-09-18T08:46:54.380Z,84.74
2022-09-18T08:47:54.318Z,84.69
2022-09-18T08:48:54.314Z,84.90
2022-09-18T08:49:54.325Z,85.21
2022-09-18T08:50:54.299Z,85.41
2022-09-18T08:51:54.288Z,84.96
2022-09-18T08:52:54.280Z,84.86
2022-09-18T08:53:54.287Z,84.45
2022-09-18T08:54:54.280Z,84.45
2022-09-18T08:55:54.280Z,84.14
2022-09-18T08:56:54.257Z,84.14
2022-09-18T08:57:54.245Z,83.12
2022-09-18T08:58:54.223Z,83.18
2022-09-18T08:59:54.300Z,82.92
2022-09-18T09:00:54.294Z,83.90
2022-09-18T09:01:54.248Z,83.90
2022-09-18T09:02:54.203Z,83.39
2022-09-18T09:03:54.201Z,81.52
2022-09-18T09:04:54.195Z,82.03
2022-09-18T09:05:54.183Z,82.27
2022-09-18T09:06:54.173Z,82.17
2022-09-18T09:07:54.184Z,82.33
2022-09-18T09:08:54.149Z,82.23
2022-09-18T09:09:54.151Z,82.47
2022-09-18T09:10:54.150Z,83.09
2022-09-18T09:11:54.201Z,82.17
2022-09-18T09:12:54.119Z,82.31
2022-09-18T09:13:54.110Z,82.98
2022-09-18T09:14:57.572Z,82.88
2022-09-18T09:15:54.250Z,82.68
2022-09-18T09:16:54.101Z,82.47
2022-09-18T09:17:54.104Z,83.12
2022-09-18T09:18:54.081Z,83.53
2022-09-18T09:19:54.071Z,83.18
2022-09-18T09:20:54.065Z,82.88
2022-09-18T09:21:54.114Z,83.09
2022-09-18T09:22:54.062Z,81.25
2022-09-18T09:23:54.059Z,81.96
2022-09-18T09:24:54.030Z,82.07
2022-09-18T09:25:54.033Z,82.37
2022-09-18T09:26:54.016Z,82.21
2022-09-18T09:27:54.024Z,82.17
2022-09-18T09:28:54.000Z,81.52
2022-09-18T09:29:53.992Z,79.79
2022-09-18T09:30:53.977Z,81.31
2022-09-18T09:31:54.175Z,80.84
2022-09-18T09:32:53.965Z,80.09
2022-09-18T09:33:53.972Z,80.36
2022-09-18T09:34:53.974Z,80.87
2022-09-18T09:35:53.952Z,80.66
2022-09-18T09:36:53.936Z,79.95
2022-09-18T09:37:53.932Z,78.83
2022-09-18T09:38:53.922Z,79.34
2022-09-18T09:39:54.001Z,79.44
2022-09-18T09:40:53.910Z,79.75
2022-09-18T09:41:53.916Z,78.42
2022-09-18T09:42:53.899Z,79.34
2022-09-18T09:43:53.902Z,81.01
2022-09-18T10:53:57.963Z,86.59
2022-09-18T10:54:54.944Z,86.49
2022-09-18T10:55:56.046Z,86.49
2022-09-18T10:56:54.907Z,86.39
2022-09-18T11:00:26.613Z,86.65
2022-09-18T11:01:26.546Z,86.65
2022-09-18T11:02:26.676Z,86.24
2022-09-18T11:03:26.545Z,86.35
2022-09-18T11:04:26.522Z,86.76
2022-09-18T11:05:26.517Z,86.51
2022-09-18T11:06:26.517Z,86.51
2022-09-18T11:07:26.505Z,85.90
2022-09-18T11:08:26.525Z,85.60
2022-09-18T11:09:26.588Z,85.05
2022-09-18T11:10:26.498Z,84.98
2022-09-18T11:11:26.484Z,85.14
2022-09-18T11:12:26.504Z,84.58
2022-09-18T11:13:26.497Z,85.90
2022-09-18T11:14:26.471Z,85.19
2022-09-18T11:15:26.479Z,85.39
2022-09-18T11:16:26.505Z,84.88
2022-09-18T11:17:26.463Z,84.78
2022-09-18T11:18:26.448Z,85.60
2022-09-18T11:19:26.450Z,85.80
2022-09-18T11:20:26.463Z,85.28
2022-09-18T11:21:26.434Z,84.33
2022-09-18T11:22:26.419Z,84.78
2022-09-18T11:23:26.415Z,85.66
2022-09-18T11:24:26.409Z,85.75
2022-09-18T11:25:26.520Z,85.96
2022-09-18T11:26:26.407Z,84.70
2022-09-18T11:27:26.401Z,85.05
2022-09-18T11:28:26.388Z,84.70
2022-09-18T11:29:26.407Z,84.90
2022-09-18T11:30:26.368Z,83.72
2022-09-18T11:31:26.449Z,83.58
2022-09-18T11:32:26.362Z,84.39
2022-09-18T11:33:26.353Z,84.53
2022-09-18T11:34:26.340Z,85.35
2022-09-18T11:35:26.358Z,84.12
2022-09-18T11:36:26.347Z,84.43
2022-09-18T11:37:26.314Z,84.59
2022-09-18T11:38:26.307Z,84.64
2022-09-18T11:40:33.528Z,83.82
2022-09-18T11:41:26.291Z,83.92
2022-09-18T11:42:26.291Z,83.62
2022-09-18T11:43:26.282Z,83.82
2022-09-18T11:44:26.288Z,83.25
2022-09-18T11:45:26.281Z,83.82
2022-09-18T11:46:26.339Z,83.45
2022-09-18T11:47:26.267Z,83.92
2022-09-18T11:48:26.284Z,84.03
2022-09-18T11:49:26.252Z,83.15
2022-09-18T11:50:26.272Z,82.54
2022-09-18T11:51:26.241Z,83.21
2022-09-18T11:52:26.238Z,83.11
2022-09-18T11:53:26.244Z,82.60
2022-09-18T11:54:26.230Z,81.88
2022-09-18T11:55:26.212Z,83.01
2022-09-18T11:56:26.300Z,83.01
2022-09-18T11:57:26.206Z,82.80
2022-09-18T11:58:26.193Z,83.42
2022-09-18T11:59:26.231Z,83.72
2022-09-18T12:00:26.191Z,82.80
2022-09-18T12:01:26.178Z,83.21
2022-09-18T12:02:26.216Z,83.31
2022-09-18T12:03:26.206Z,82.60
2022-09-18T12:04:26.155Z,83.11
2022-09-18T12:05:26.165Z,82.46
2022-09-18T12:06:26.136Z,82.90
2022-09-18T12:07:39.606Z,83.11
2022-09-18T12:08:24.766Z,82.90
2022-09-18T12:09:24.768Z,82.60
2022-09-18T12:10:24.755Z,82.90
2022-09-18T12:11:24.764Z,82.40
2022-09-18T12:12:24.834Z,83.21
2022-09-18T12:13:24.730Z,83.51
2022-09-18T12:14:24.730Z,83.01
2022-09-18T12:15:24.718Z,83.31
2022-09-18T12:16:24.842Z,83.86
2022-09-18T12:17:24.730Z,83.96
2022-09-18T12:18:24.696Z,85.28
2022-09-18T12:19:24.715Z,84.23
2022-09-18T12:20:24.714Z,84.03
2022-09-18T12:21:24.674Z,84.03
2022-09-18T12:22:24.672Z,84.03
2022-09-18T12:23:24.659Z,84.03
2022-09-18T12:24:24.689Z,84.12
2022-09-18T12:25:24.657Z,84.23
2022-09-18T12:26:24.661Z,84.58
2022-09-18T12:27:27.677Z,84.03
2022-09-18T12:28:24.732Z,84.03
2022-09-18T12:29:24.630Z,84.33
2022-09-18T12:30:24.631Z,84.74
2022-09-18T12:31:24.629Z,85.05
2022-09-18T12:32:24.609Z,84.84
2022-09-18T12:33:24.588Z,85.05
2022-09-18T12:34:24.584Z,84.33
2022-09-18T12:35:24.594Z,84.12
2022-09-18T12:36:24.618Z,84.19
2022-09-18T12:37:24.561Z,84.23
2022-09-18T12:38:24.551Z,84.98
2022-09-18T12:39:25.213Z,84.53
2022-09-18T12:40:25.242Z,84.12
2022-09-18T12:41:25.194Z,84.74
2022-09-18T12:42:25.213Z,85.05
2022-09-18T12:43:25.186Z,83.92
2022-09-18T12:44:25.258Z,84.53
2022-09-18T12:45:25.169Z,84.64
2022-09-18T12:46:25.158Z,84.12
2022-09-18T12:47:25.163Z,84.84
2022-09-18T12:48:25.166Z,85.14
2022-09-18T12:49:25.132Z,84.84
2022-09-18T12:50:25.136Z,84.33
2022-09-18T12:51:25.110Z,84.03
2022-09-18T12:52:27.650Z,84.12
2022-09-18T12:53:25.121Z,84.78
2022-09-18T12:54:25.105Z,86.61
2022-09-18T12:55:25.084Z,86.41
2022-09-18T12:56:25.087Z,87.23
2022-09-18T12:57:25.070Z,87.73
2022-09-18T12:58:25.103Z,86.77
2022-09-18T12:59:25.052Z,86.61
2022-09-18T13:00:25.145Z,85.69
2022-09-18T13:01:25.138Z,85.69
2022-09-18T13:02:25.051Z,86.21
2022-09-18T13:03:25.041Z,85.80
2022-09-18T13:04:25.039Z,84.84
2022-09-18T13:05:25.031Z,84.58
2022-09-18T13:06:25.002Z,84.37
2022-09-18T13:07:24.989Z,84.27
2022-09-18T13:08:25.010Z,85.08
2022-09-18T13:09:26.055Z,84.98
2022-09-18T13:10:24.964Z,86.21
2022-09-18T13:11:24.957Z,84.88
2022-09-18T13:12:24.950Z,84.78
2022-09-18T13:13:24.969Z,84.67
2022-09-18T13:14:24.939Z,85.22
2022-09-18T13:15:24.940Z,84.20
2022-09-18T13:16:25.819Z,84.61
2022-09-18T13:17:25.647Z,84.72
2022-09-18T13:18:25.664Z,85.33
2022-09-18T13:19:25.629Z,85.13
2022-09-18T13:20:25.640Z,84.82
2022-09-18T13:21:25.619Z,84.61
2022-09-18T13:22:25.611Z,83.80
2022-09-18T13:23:25.603Z,84.41
2022-09-18T13:24:25.641Z,84.72
2022-09-18T13:25:25.596Z,86.29
2022-09-18T13:26:25.585Z,86.35
2022-09-18T13:27:25.581Z,86.76
2022-09-18T13:28:25.570Z,86.18
2022-09-18T13:29:25.565Z,86.69
2022-09-18T13:30:25.577Z,86.39
2022-09-18T13:31:25.582Z,86.15
2022-09-18T13:32:25.614Z,86.86
2022-09-18T13:33:25.524Z,86.76
2022-09-18T13:34:25.525Z,88.32
2022-09-18T13:35:25.509Z,87.82
2022-09-18T13:36:25.513Z,86.65
2022-09-18T13:37:25.497Z,86.35
2022-09-18T13:38:25.483Z,86.35
2022-09-18T13:39:25.477Z,86.35
2022-09-18T13:40:25.510Z,86.55
2022-09-18T13:41:25.461Z,86.65
2022-09-18T13:42:25.492Z,86.04
2022-09-18T13:43:25.464Z,86.35
2022-09-18T13:44:25.451Z,86.08
2022-09-18T13:45:25.428Z,86.49
2022-09-18T13:46:25.472Z,86.59
2022-09-18T13:47:25.418Z,86.39
2022-09-18T13:48:25.510Z,86.59
2022-09-18T13:49:25.399Z,86.49
2022-09-18T13:50:25.393Z,86.18
2022-09-18T13:51:28.506Z,86.73
2022-09-18T13:52:26.401Z,86.73
2022-09-18T13:53:25.374Z,87.55
2022-09-18T13:54:25.366Z,88.06
2022-09-18T13:55:25.368Z,88.51
2022-09-18T13:56:25.360Z,87.65
2022-09-18T13:57:25.357Z,86.94
2022-09-18T13:58:25.362Z,88.00
2022-09-18T13:59:25.347Z,87.90
2022-09-18T14:00:25.333Z,87.70
2022-09-18T14:01:25.308Z,87.49
2022-09-18T14:02:25.325Z,87.59
2022-09-18T14:03:27.780Z,87.04
2022-09-18T14:04:25.372Z,87.55
2022-09-18T14:05:25.305Z,87.35